createdAt,value
2018-07-20T00:01:58.196Z,83.24
2018-07-20T00:04:27.410Z,82.92
2018-07-20T00:06:56.546Z,82.82
2018-07-20T00:09:25.712Z,82.21
2018-07-20T00:11:54.882Z,82.17
2018-07-20T00:14:25.650Z,83.00
2018-07-20T00:16:54.809Z,83.01
2018-07-20T00:19:24.001Z,83.10
2018-07-20T00:21:53.241Z,82.97
2018-07-20T00:24:22.396Z,82.72
2018-07-20T00:26:51.593Z,82.82
2018-07-20T00:29:20.842Z,82.89
2018-07-20T00:31:50.031Z,83.14
2018-07-20T00:34:19.259Z,83.62
2018-07-20T00:36:48.484Z,84.24
2018-07-20T00:39:17.681Z,83.95
2018-07-20T00:41:47.001Z,84.63
2018-07-20T00:44:16.139Z,83.32
2018-07-20T00:46:45.431Z,84.14
2018-07-20T00:49:14.608Z,84.42
2018-07-20T00:51:43.800Z,85.50
2018-07-20T00:54:13.247Z,85.29
2018-07-20T00:56:42.459Z,85.95
2018-07-20T00:59:11.635Z,86.37
2018-07-20T01:01:40.792Z,85.87
2018-07-20T01:04:10.010Z,85.91
2018-07-20T01:06:39.187Z,86.46
2018-07-20T01:09:09.733Z,86.12
2018-07-20T01:11:39.271Z,86.83
2018-07-20T01:14:08.476Z,86.49
2018-07-20T01:16:37.641Z,86.36
2018-07-20T01:19:06.893Z,86.46
2018-07-20T01:21:36.077Z,86.50
2018-07-20T01:24:05.290Z,86.37
2018-07-20T01:26:34.471Z,86.46
2018-07-20T01:29:03.622Z,87.29
2018-07-20T01:31:32.804Z,87.32
2018-07-20T01:34:02.419Z,87.23
2018-07-20T01:36:31.619Z,87.57
2018-07-20T01:39:00.870Z,87.46
2018-07-20T01:41:30.052Z,87.74
2018-07-20T01:43:59.219Z,87.66
2018-07-20T01:46:28.378Z,88.01
2018-07-20T01:48:57.598Z,87.93
2018-07-20T01:51:26.741Z,87.78
2018-07-20T01:53:55.916Z,88.40
2018-07-20T01:56:25.122Z,88.23
2018-07-20T01:58:54.288Z,88.28
2018-07-20T02:01:23.455Z,88.33
2018-07-20T02:03:52.632Z,88.49
2018-07-20T02:06:21.908Z,88.72
2018-07-20T02:08:51.067Z,88.82
2018-07-20T02:11:20.237Z,88.84
2018-07-20T02:13:49.385Z,89.26
2018-07-20T02:16:18.538Z,89.77
2018-07-20T02:18:47.838Z,89.69
2018-07-20T02:21:17.006Z,89.90
2018-07-20T02:23:46.197Z,89.43
2018-07-20T02:26:15.371Z,89.61
2018-07-20T02:28:44.634Z,89.38
2018-07-20T02:31:13.798Z,89.33
2018-07-20T02:33:42.965Z,89.54
2018-07-20T02:36:12.161Z,89.38
2018-07-20T02:38:41.326Z,89.23
2018-07-20T02:41:10.849Z,89.41
2018-07-20T02:43:40.122Z,89.82
2018-07-20T02:46:09.360Z,89.48
2018-07-20T02:48:38.524Z,89.68
2018-07-20T02:51:07.935Z,89.34
2018-07-20T02:53:37.090Z,89.66
2018-07-20T02:56:06.262Z,89.61
2018-07-20T02:58:35.412Z,89.77
2018-07-20T03:01:04.609Z,89.94
2018-07-20T03:03:33.872Z,89.74
2018-07-20T03:06:03.061Z,90.00
2018-07-20T03:08:32.206Z,89.47
2018-07-20T03:11:01.384Z,90.10
2018-07-20T03:13:30.533Z,90.33
2018-07-20T03:15:59.819Z,90.56
2018-07-20T03:18:28.958Z,90.54
2018-07-20T03:20:58.132Z,90.78
2018-07-20T03:23:27.334Z,90.83
2018-07-20T03:25:56.579Z,90.51
2018-07-20T03:28:25.720Z,90.61
2018-07-20T03:30:54.858Z,90.56
2018-07-20T03:33:24.064Z,90.40
2018-07-20T03:35:53.184Z,90.35
2018-07-20T03:38:22.338Z,90.30
2018-07-20T03:40:53.287Z,90.07
2018-07-20T03:43:22.449Z,90.15
2018-07-20T03:45:51.620Z,91.11
2018-07-20T03:48:20.796Z,91.02
2018-07-20T03:50:49.957Z,90.77
2018-07-20T03:53:19.117Z,90.63
2018-07-20T03:55:48.282Z,90.38
2018-07-20T03:58:17.440Z,90.46
2018-07-20T04:00:46.584Z,90.42
2018-07-20T04:03:15.787Z,90.02
2018-07-20T04:05:44.929Z,90.32
2018-07-20T04:08:14.187Z,90.02
2018-07-20T04:10:43.405Z,89.99
2018-07-20T04:13:12.707Z,89.88
2018-07-20T04:15:42.340Z,89.23
2018-07-20T04:18:11.516Z,89.40
2018-07-20T04:20:40.652Z,89.54
2018-07-20T04:23:10.749Z,89.11
2018-07-20T04:25:39.916Z,88.66
2018-07-20T04:28:09.060Z,88.69
2018-07-20T04:30:38.212Z,88.38
2018-07-20T04:33:07.508Z,88.05
2018-07-20T04:35:36.679Z,87.31
2018-07-20T04:38:05.909Z,87.26
2018-07-20T04:40:35.118Z,86.35
2018-07-20T04:43:04.316Z,85.92
2018-07-20T04:45:33.487Z,85.30
2018-07-20T04:48:02.689Z,85.33
2018-07-20T04:50:31.866Z,85.19
2018-07-20T04:53:01.024Z,85.56
2018-07-20T04:55:30.225Z,85.29
2018-07-20T04:57:59.384Z,84.87
2018-07-20T05:00:28.953Z,84.21
2018-07-20T05:02:58.516Z,83.41
2018-07-20T05:05:27.698Z,83.29
2018-07-20T05:07:56.836Z,83.64
2018-07-20T05:10:26.021Z,83.72
2018-07-20T05:12:55.239Z,83.47
2018-07-20T05:15:24.406Z,83.50
2018-07-20T05:17:53.580Z,83.64
2018-07-20T05:20:22.766Z,82.59
2018-07-20T05:22:51.939Z,82.60
2018-07-20T05:25:21.130Z,82.08
2018-07-20T05:27:50.337Z,80.94
2018-07-20T05:30:19.747Z,80.79
2018-07-20T05:32:48.994Z,80.91
2018-07-20T05:35:18.369Z,80.00
2018-07-20T05:37:47.543Z,79.17
2018-07-20T05:40:16.725Z,78.62
2018-07-20T05:42:46.370Z,78.50
2018-07-20T05:45:15.515Z,76.93
2018-07-20T05:47:45.541Z,76.75
2018-07-20T05:50:15.005Z,76.83
2018-07-20T05:52:44.182Z,75.59
2018-07-20T05:55:13.688Z,74.78
2018-07-20T05:57:42.888Z,76.03
2018-07-20T06:00:12.102Z,76.35
2018-07-20T06:02:41.319Z,74.72
2018-07-20T06:05:10.651Z,74.53
2018-07-20T06:07:39.766Z,73.00
2018-07-20T06:10:09.072Z,73.29
2018-07-20T06:12:39.148Z,73.05
2018-07-20T06:15:08.533Z,78.32
2018-07-20T06:17:37.697Z,76.01
2018-07-20T06:20:08.816Z,76.54
2018-07-20T06:22:38.554Z,73.89
2018-07-20T06:25:08.010Z,71.92
2018-07-20T06:27:37.221Z,70.33
2018-07-20T06:30:07.171Z,67.92
2018-07-20T06:32:36.676Z,69.29
2018-07-20T06:35:05.906Z,68.36
2018-07-20T06:37:35.093Z,67.57
2018-07-20T06:40:04.336Z,66.58
2018-07-20T06:42:33.726Z,68.59
2018-07-20T06:45:02.878Z,67.82
2018-07-20T06:47:32.043Z,68.12
2018-07-20T06:50:01.245Z,67.68
2018-07-20T06:52:30.437Z,66.92
2018-07-20T06:54:59.583Z,66.81
2018-07-20T06:57:28.777Z,65.89
2018-07-20T06:59:57.996Z,65.60
2018-07-20T07:02:27.138Z,66.02
2018-07-20T07:04:57.683Z,65.96
2018-07-20T07:07:26.860Z,66.29
2018-07-20T07:09:56.045Z,63.69
2018-07-20T07:12:25.168Z,65.48
2018-07-20T07:14:54.362Z,65.31
2018-07-20T07:17:23.505Z,63.83
2018-07-20T07:19:52.641Z,64.47
2018-07-20T07:22:21.888Z,63.03
2018-07-20T07:24:50.942Z,62.54
2018-07-20T07:27:20.051Z,61.68
2018-07-20T07:29:49.319Z,62.01
2018-07-20T07:32:18.451Z,61.83
2018-07-20T07:34:47.738Z,60.71
2018-07-20T07:37:16.925Z,60.42
2018-07-20T07:39:46.138Z,61.33
2018-07-20T07:42:15.374Z,60.68
2018-07-20T07:44:44.491Z,60.95
2018-07-20T07:47:13.690Z,61.46
2018-07-20T07:49:42.820Z,61.14
2018-07-20T07:52:11.961Z,59.09
2018-07-20T07:54:41.094Z,60.06
2018-07-20T07:57:10.982Z,59.75
2018-07-20T07:59:40.182Z,59.22
2018-07-20T08:02:09.440Z,59.71
2018-07-20T08:04:38.628Z,58.06
2018-07-20T08:07:07.825Z,57.22
2018-07-20T08:09:37.044Z,57.71
2018-07-20T08:12:06.330Z,57.45
2018-07-20T08:14:35.658Z,56.02
2018-07-20T08:17:04.918Z,57.23
2018-07-20T08:19:34.109Z,56.20
2018-07-20T08:22:03.265Z,57.58
2018-07-20T08:24:32.417Z,55.72
2018-07-20T08:27:01.561Z,56.36
2018-07-20T08:29:30.817Z,56.54
2018-07-20T08:31:59.952Z,55.87
2018-07-20T08:34:29.123Z,54.53
2018-07-20T08:36:58.283Z,54.44
2018-07-20T08:39:27.522Z,53.34
2018-07-20T08:41:56.725Z,52.12
2018-07-20T08:44:25.998Z,53.72
2018-07-20T08:46:55.317Z,51.94
2018-07-20T08:49:24.581Z,54.76
2018-07-20T08:51:53.753Z,53.67
2018-07-20T08:54:22.877Z,55.35
2018-07-20T08:56:52.145Z,52.93
2018-07-20T08:59:21.310Z,51.17
2018-07-20T09:01:50.438Z,53.58
2018-07-20T09:04:19.614Z,51.88
2018-07-20T09:06:48.869Z,51.04
2018-07-20T09:09:18.045Z,48.88
2018-07-20T09:11:48.113Z,50.74
2018-07-20T09:14:17.292Z,50.17
2018-07-20T09:16:46.554Z,49.92
2018-07-20T09:19:15.707Z,47.24
2018-07-20T09:21:44.893Z,47.44
2018-07-20T09:24:14.170Z,46.00
2018-07-20T09:26:43.671Z,46.75
2018-07-20T09:29:12.886Z,47.50
2018-07-20T09:31:42.223Z,45.20
2018-07-20T09:34:13.841Z,48.84
2018-07-20T09:36:42.982Z,45.71
2018-07-20T09:39:12.692Z,43.92
2018-07-20T09:41:41.921Z,40.75
2018-07-20T09:44:11.119Z,43.62
2018-07-20T09:46:40.269Z,43.01
2018-07-20T09:49:09.736Z,42.60
2018-07-20T09:51:40.738Z,43.58
2018-07-20T09:54:11.507Z,42.35
2018-07-20T09:56:41.129Z,42.84
2018-07-20T09:59:11.320Z,40.96
2018-07-20T10:01:40.547Z,43.37
2018-07-20T10:04:09.769Z,43.20
2018-07-20T10:06:38.941Z,41.17
2018-07-20T10:09:10.646Z,41.58
2018-07-20T10:11:39.780Z,41.96
2018-07-20T10:14:09.068Z,40.89
2018-07-20T10:16:38.388Z,39.58
2018-07-20T10:19:07.880Z,39.70
2018-07-20T10:21:37.180Z,40.17
2018-07-20T10:24:06.446Z,40.39
2018-07-20T10:26:35.617Z,39.25
2018-07-20T10:29:04.814Z,39.28
2018-07-20T10:31:34.056Z,39.08
2018-07-20T10:34:03.224Z,38.12
2018-07-20T10:36:32.409Z,38.65
2018-07-20T10:39:01.565Z,42.48
2018-07-20T10:41:30.752Z,40.98
2018-07-20T10:44:00.022Z,40.13
2018-07-20T10:46:29.179Z,40.35
2018-07-20T10:48:58.360Z,40.02
2018-07-20T10:51:27.558Z,39.59
2018-07-20T10:53:56.746Z,37.39
2018-07-20T10:56:25.947Z,37.35
2018-07-20T10:58:55.391Z,37.46
2018-07-20T11:01:24.588Z,37.53
2018-07-20T11:03:53.756Z,39.32
2018-07-20T11:06:22.958Z,36.30
2018-07-20T11:08:52.129Z,39.42
2018-07-20T11:11:21.361Z,35.68
2018-07-20T11:13:50.492Z,37.83
2018-07-20T11:16:19.662Z,35.45
2018-07-20T11:18:48.816Z,37.28
2018-07-20T11:21:18.151Z,36.62
2018-07-20T11:23:47.454Z,34.97
2018-07-20T11:26:16.623Z,34.76
2018-07-20T11:28:45.783Z,34.64
2018-07-20T11:31:14.985Z,35.45
2018-07-20T11:33:44.146Z,35.46
2018-07-20T11:36:13.465Z,35.10
2018-07-20T11:38:42.617Z,36.09
2018-07-20T11:41:11.743Z,35.06
2018-07-20T11:43:40.886Z,34.58
2018-07-20T11:46:10.043Z,37.13
2018-07-20T11:48:39.375Z,33.80
2018-07-20T11:51:08.693Z,36.12
2018-07-20T11:53:37.891Z,34.48
2018-07-20T11:56:07.035Z,36.24
2018-07-20T11:58:36.179Z,36.13
2018-07-20T12:01:05.384Z,33.96
2018-07-20T12:03:34.591Z,34.31
2018-07-20T12:06:04.270Z,35.31
2018-07-20T12:08:33.452Z,34.15
2018-07-20T12:11:02.628Z,38.27
2018-07-20T12:13:31.814Z,34.55
2018-07-20T12:16:01.003Z,35.66
2018-07-20T12:18:30.133Z,35.48
2018-07-20T12:20:59.458Z,34.32
2018-07-20T12:23:28.614Z,33.14
2018-07-20T12:25:57.776Z,33.75
2018-07-20T12:28:26.927Z,32.80
2018-07-20T12:30:56.086Z,34.47
2018-07-20T12:33:25.253Z,36.03
2018-07-20T12:35:54.448Z,32.82
2018-07-20T12:38:23.572Z,31.83
2018-07-20T12:40:52.749Z,31.79
2018-07-20T12:43:21.909Z,30.69
2018-07-20T12:45:51.043Z,33.78
2018-07-20T12:48:20.216Z,30.51
2018-07-20T12:50:49.404Z,31.04
2018-07-20T12:53:18.677Z,31.40
2018-07-20T12:55:47.837Z,32.43
2018-07-20T12:58:16.991Z,32.55
2018-07-20T13:00:46.107Z,29.00
2018-07-20T13:03:15.267Z,30.39
2018-07-20T13:05:44.448Z,29.39
2018-07-20T13:08:13.655Z,29.96
2018-07-20T13:10:42.814Z,31.87
2018-07-20T13:13:11.960Z,31.41
2018-07-20T13:15:41.158Z,32.75
2018-07-20T13:18:10.491Z,32.26
2018-07-20T13:20:39.587Z,31.95
2018-07-20T13:23:08.936Z,30.02
2018-07-20T13:25:38.124Z,31.61
2018-07-20T13:28:07.332Z,30.45
2018-07-20T13:30:36.515Z,30.01
2018-07-20T13:33:05.707Z,30.91
2018-07-20T13:35:34.873Z,31.22
2018-07-20T13:38:04.663Z,30.79
2018-07-20T13:40:33.834Z,31.42
2018-07-20T13:43:03.060Z,29.08
2018-07-20T13:45:32.252Z,29.48
2018-07-20T13:48:01.390Z,30.67
2018-07-20T13:50:30.773Z,28.93
2018-07-20T13:53:00.062Z,29.49
2018-07-20T13:55:29.345Z,28.93
2018-07-20T13:57:58.541Z,30.01
2018-07-20T14:00:27.689Z,28.99
2018-07-20T14:02:56.885Z,28.26
2018-07-20T14:05:26.054Z,28.68
2018-07-20T14:07:55.186Z,30.27
2018-07-20T14:10:24.315Z,29.64
2018-07-20T14:12:53.472Z,29.96
2018-07-20T14:15:22.659Z,28.15
2018-07-20T14:17:51.809Z,29.92
2018-07-20T14:20:20.980Z,29.92
2018-07-20T14:22:50.190Z,29.49
2018-07-20T14:25:19.393Z,30.18
2018-07-20T14:27:48.566Z,29.19
2018-07-20T14:30:17.742Z,30.08
2018-07-20T14:32:46.863Z,29.46
2018-07-20T14:35:16.060Z,30.81
2018-07-20T14:37:45.225Z,29.08
2018-07-20T14:40:14.459Z,30.43
2018-07-20T14:42:43.644Z,28.47
2018-07-20T14:45:12.820Z,29.13
2018-07-20T14:47:41.969Z,29.00
2018-07-20T14:50:11.154Z,30.70
2018-07-20T14:52:40.427Z,28.08
2018-07-20T14:55:09.602Z,28.74
2018-07-20T14:57:38.726Z,31.93
2018-07-20T15:00:07.942Z,27.92
2018-07-20T15:02:37.099Z,27.47
2018-07-20T15:05:06.447Z,27.66
2018-07-20T15:07:35.603Z,29.01
2018-07-20T15:10:04.858Z,29.49
2018-07-20T15:12:34.098Z,26.67
2018-07-20T15:15:03.275Z,25.59
2018-07-20T15:17:32.415Z,26.16
2018-07-20T15:20:01.578Z,25.73
2018-07-20T15:22:30.782Z,25.55
2018-07-20T15:25:00.002Z,26.02
2018-07-20T15:27:29.186Z,25.61
2018-07-20T15:29:58.459Z,26.29
2018-07-20T15:32:27.701Z,27.86
2018-07-20T15:34:57.007Z,26.31
2018-07-20T15:37:26.216Z,27.05
2018-07-20T15:39:55.483Z,24.93
2018-07-20T15:42:24.828Z,24.98
2018-07-20T15:44:54.028Z,24.67
2018-07-20T15:47:23.285Z,26.16
2018-07-20T15:49:52.353Z,25.90
2018-07-20T15:54:50.768Z,24.69
2018-07-20T15:57:19.941Z,27.50
2018-07-20T15:59:49.249Z,26.85
2018-07-20T16:02:18.349Z,27.30
2018-07-20T16:04:47.587Z,28.06
2018-07-20T16:07:18.336Z,27.44
2018-07-20T16:09:47.497Z,28.71
2018-07-20T16:12:16.688Z,27.36
2018-07-20T16:14:45.878Z,28.37
2018-07-20T16:17:15.083Z,27.35
2018-07-20T16:19:44.284Z,26.65
2018-07-20T16:22:13.481Z,26.69
2018-07-20T16:24:42.790Z,28.80
2018-07-20T16:27:12.062Z,28.28
2018-07-20T16:29:41.245Z,28.12
2018-07-20T16:32:10.528Z,27.73
2018-07-20T16:34:39.713Z,27.21
2018-07-20T16:37:09.599Z,27.64
2018-07-20T16:39:38.837Z,27.17
2018-07-20T16:42:08.267Z,28.61
2018-07-20T16:44:37.433Z,27.62
2018-07-20T16:47:06.769Z,27.91
2018-07-20T16:49:35.937Z,28.73
2018-07-20T16:52:05.174Z,28.58
2018-07-20T16:54:34.340Z,28.46
2018-07-20T16:57:03.485Z,30.12
2018-07-20T16:59:32.113Z,30.37
2018-07-20T17:02:01.430Z,29.76
2018-07-20T17:04:30.579Z,29.39
2018-07-20T17:06:59.720Z,28.68
2018-07-20T17:09:28.922Z,29.27
2018-07-20T17:11:58.073Z,29.99
2018-07-20T17:14:27.232Z,29.95
2018-07-20T17:16:56.411Z,29.93
2018-07-20T17:19:25.566Z,30.34
2018-07-20T17:21:54.751Z,30.13
2018-07-20T17:24:23.906Z,29.48
2018-07-20T17:26:53.072Z,29.96
2018-07-20T17:29:22.336Z,29.88
2018-07-20T17:31:51.572Z,31.17
2018-07-20T17:34:20.777Z,30.65
2018-07-20T17:36:49.941Z,31.20
2018-07-20T17:39:19.144Z,32.27
2018-07-20T17:41:48.354Z,31.45
2018-07-20T17:44:17.495Z,32.23
2018-07-20T17:46:46.725Z,31.77
2018-07-20T17:49:15.863Z,31.44
2018-07-20T17:51:45.008Z,30.63
2018-07-20T17:54:14.182Z,31.57
2018-07-20T17:56:43.367Z,32.10
2018-07-20T17:59:12.529Z,32.84
2018-07-20T18:01:41.695Z,33.15
2018-07-20T18:04:10.849Z,34.53
2018-07-20T18:06:40.109Z,34.72
2018-07-20T18:09:10.582Z,36.07
2018-07-20T18:11:39.752Z,37.49
2018-07-20T18:14:09.637Z,38.40
2018-07-20T18:16:38.807Z,39.62
2018-07-20T18:19:08.177Z,43.17
2018-07-20T18:21:37.350Z,45.11
2018-07-20T18:24:06.663Z,47.35
2018-07-20T18:26:35.861Z,48.53
2018-07-20T18:29:05.141Z,49.33
2018-07-20T18:31:34.277Z,49.83
2018-07-20T18:34:03.855Z,50.16
2018-07-20T18:36:33.046Z,49.77
2018-07-20T18:39:02.269Z,50.75
2018-07-20T18:41:31.524Z,50.95
2018-07-20T18:44:00.721Z,51.73
2018-07-20T18:46:29.892Z,52.11
2018-07-20T18:48:59.053Z,52.42
2018-07-20T18:51:28.211Z,51.03
2018-07-20T18:53:57.359Z,52.05
2018-07-20T18:56:26.583Z,53.75
2018-07-20T18:58:55.786Z,54.75
2018-07-20T19:01:25.638Z,54.34
2018-07-20T19:03:54.870Z,55.70
2018-07-20T19:06:24.181Z,57.54
2018-07-20T19:08:53.597Z,59.43
2018-07-20T19:11:22.801Z,59.72
2018-07-20T19:13:54.143Z,59.98
2018-07-20T19:16:31.448Z,60.19
2018-07-20T19:19:03.431Z,59.04
2018-07-20T19:21:33.735Z,57.84
2018-07-20T19:24:02.906Z,58.58
2018-07-20T19:26:32.816Z,58.95
2018-07-20T19:29:03.862Z,56.46
2018-07-20T19:31:33.017Z,57.03
2018-07-20T19:34:03.067Z,57.70
2018-07-20T19:36:32.815Z,58.18
2018-07-20T19:39:02.237Z,58.46
2018-07-20T19:41:31.391Z,59.99
2018-07-20T19:44:00.583Z,62.00
2018-07-20T19:46:29.758Z,61.61
2018-07-20T19:48:58.924Z,60.36
2018-07-20T19:51:28.140Z,60.87
2018-07-20T19:53:57.361Z,61.70
2018-07-20T19:56:26.525Z,62.71
2018-07-20T19:58:55.756Z,62.83
2018-07-20T20:01:24.902Z,63.49
2018-07-20T20:03:54.170Z,63.17
2018-07-20T20:06:23.300Z,63.85
2018-07-20T20:08:52.474Z,63.87
2018-07-20T20:11:29.849Z,64.03
2018-07-20T20:13:58.979Z,64.86
2018-07-20T20:16:28.141Z,64.70
2018-07-20T20:18:57.370Z,65.33
2018-07-20T20:21:26.510Z,65.47
2018-07-20T20:23:55.674Z,66.34
2018-07-20T20:26:24.887Z,67.88
2018-07-20T20:28:54.113Z,68.31
2018-07-20T20:31:23.402Z,69.01
2018-07-20T20:33:52.640Z,70.25
2018-07-20T20:36:21.927Z,69.79
2018-07-20T20:38:52.309Z,70.02
2018-07-20T20:41:21.524Z,70.91
2018-07-20T20:43:50.686Z,70.49
2018-07-20T20:46:19.820Z,71.39
2018-07-20T20:48:49.099Z,71.91
2018-07-20T20:51:18.243Z,71.67
2018-07-20T20:53:47.479Z,71.06
2018-07-20T20:56:16.604Z,71.31
2018-07-20T20:58:45.985Z,71.63
2018-07-20T21:01:15.180Z,72.47
2018-07-20T21:03:44.438Z,73.39
2018-07-20T21:06:13.616Z,73.82
2018-07-20T21:08:42.744Z,73.84
2018-07-20T21:11:12.005Z,73.10
2018-07-20T21:13:41.153Z,73.82
2018-07-20T21:16:10.329Z,74.10
2018-07-20T21:18:39.597Z,74.01
2018-07-20T21:21:09.001Z,74.47
2018-07-20T21:23:38.173Z,75.42
2018-07-20T21:26:07.322Z,74.63
2018-07-20T21:28:36.461Z,73.72
2018-07-20T21:31:05.775Z,74.20
2018-07-20T21:33:34.992Z,74.71
2018-07-20T21:36:04.206Z,74.65
2018-07-20T21:38:33.356Z,75.54
2018-07-20T21:41:02.561Z,75.67
2018-07-20T21:43:31.769Z,75.91
2018-07-20T21:46:00.921Z,76.00
2018-07-20T21:48:30.091Z,76.52
2018-07-20T21:50:59.240Z,76.86
2018-07-20T21:53:28.387Z,76.50
2018-07-20T21:55:57.521Z,77.23
2018-07-20T21:58:26.759Z,77.39
2018-07-20T22:00:55.930Z,77.50
2018-07-20T22:03:25.250Z,78.50
2018-07-20T22:05:54.402Z,78.96
2018-07-20T22:08:23.585Z,78.46
2018-07-20T22:10:52.740Z,78.40
2018-07-20T22:13:21.874Z,77.97
2018-07-20T22:15:51.060Z,77.87
2018-07-20T22:18:20.239Z,77.75
2018-07-20T22:20:49.387Z,77.48
2018-07-20T22:23:18.625Z,77.65
2018-07-20T22:25:47.798Z,77.70
2018-07-20T22:28:16.924Z,77.38
2018-07-20T22:30:46.133Z,79.03
2018-07-20T22:33:15.321Z,79.80
2018-07-20T22:35:44.519Z,80.55
2018-07-20T22:38:13.712Z,80.87
2018-07-20T22:40:43.040Z,81.02
2018-07-20T22:43:12.245Z,80.83
2018-07-20T22:45:41.531Z,81.24
2018-07-20T22:48:10.831Z,80.97
2018-07-20T22:50:39.987Z,81.85
2018-07-20T22:53:09.230Z,82.82
2018-07-20T22:55:38.426Z,83.06
2018-07-20T22:58:07.609Z,83.45
2018-07-20T23:00:36.781Z,83.20
2018-07-20T23:03:06.158Z,82.70
2018-07-20T23:05:35.358Z,82.56
2018-07-20T23:08:04.758Z,82.12
2018-07-20T23:10:33.926Z,82.25
2018-07-20T23:13:03.077Z,82.51
2018-07-20T23:15:32.329Z,82.04
2018-07-20T23:18:01.472Z,82.26
2018-07-20T23:20:30.610Z,82.06
2018-07-20T23:22:59.766Z,82.60
2018-07-20T23:25:29.869Z,82.91
2018-07-20T23:27:59.036Z,83.22
2018-07-20T23:30:28.187Z,83.88
2018-07-20T23:32:57.356Z,83.66
2018-07-20T23:35:26.661Z,83.68
2018-07-20T23:37:55.825Z,84.63
2018-07-20T23:40:25.057Z,84.68
2018-07-20T23:42:54.261Z,84.80
2018-07-20T23:45:23.400Z,84.78
2018-07-20T23:47:52.572Z,84.73
2018-07-20T23:50:21.750Z,84.46
2018-07-20T23:52:50.909Z,84.58
2018-07-20T23:55:20.111Z,85.34
2018-07-20T23:57:49.269Z,85.85
